WAT5643 KATL-KCLT
Flight info
| Callsign | WAT5643 |
|---|---|
| Flight time | 0h 44m |
| Altitude | 25000 |
| Route | PHIIL3 PHIIL CNTLR JONZE5 |
| Aircraft | A21N/M-SDE3FGHIJ5RWY/LB1 |
Departure
| Time | 2026-05-08 02:14 |
|---|---|
| Airport | Hartsfield Jackson Atlanta International Airport (KATL) |
Arrival
| Time | 2026-05-08 02:59 |
|---|---|
| Airport | Charlotte Douglas International Airport (KCLT) |
| Time | Latitude | Longitude | Altitude | Speed | Heading |
|---|---|---|---|---|---|
| 2026-05-08 01:48 | 33.64006 | -84.42627 | 1003 ft | 0 kts | 90° |
| 2026-05-08 02:03 | 33.64006 | -84.42630 | 1003 ft | 2 kts | 89° |
| 2026-05-08 02:03 | 33.64005 | -84.42645 | 1004 ft | 2 kts | 89° |
| 2026-05-08 02:03 | 33.64005 | -84.42661 | 1004 ft | 2 kts | 91° |
| 2026-05-08 02:03 | 33.64005 | -84.42677 | 1005 ft | 2 kts | 90° |
| 2026-05-08 02:04 | 33.64006 | -84.42693 | 1005 ft | 2 kts | 91° |
| 2026-05-08 02:04 | 33.64006 | -84.42709 | 1005 ft | 2 kts | 94° |
| 2026-05-08 02:04 | 33.64014 | -84.42725 | 1005 ft | 2 kts | 147° |
| 2026-05-08 02:04 | 33.64025 | -84.42731 | 1005 ft | 0 kts | 177° |
| 2026-05-08 02:05 | 33.64031 | -84.42731 | 1005 ft | 1 kts | 181° |
| 2026-05-08 02:05 | 33.64033 | -84.42731 | 1005 ft | 0 kts | 181° |
| 2026-05-08 02:07 | 33.64031 | -84.42731 | 1005 ft | 1 kts | 181° |
| 2026-05-08 02:07 | 33.64015 | -84.42731 | 1005 ft | 3 kts | 181° |
| 2026-05-08 02:07 | 33.63984 | -84.42731 | 1005 ft | 5 kts | 181° |
| 2026-05-08 02:07 | 33.63942 | -84.42733 | 1005 ft | 6 kts | 181° |
| 2026-05-08 02:08 | 33.63892 | -84.42733 | 1005 ft | 7 kts | 180° |
| 2026-05-08 02:08 | 33.63835 | -84.42734 | 1005 ft | 8 kts | 180° |
| 2026-05-08 02:08 | 33.63768 | -84.42734 | 1004 ft | 11 kts | 180° |
| 2026-05-08 02:08 | 33.63690 | -84.42732 | 1003 ft | 10 kts | 174° |
| 2026-05-08 02:09 | 33.63654 | -84.42664 | 1001 ft | 12 kts | 90° |
| 2026-05-08 02:09 | 33.63655 | -84.42551 | 999 ft | 14 kts | 90° |
| 2026-05-08 02:09 | 33.63655 | -84.42419 | 995 ft | 17 kts | 90° |
| 2026-05-08 02:09 | 33.63655 | -84.42274 | 990 ft | 13 kts | 90° |
| 2026-05-08 02:10 | 33.63655 | -84.42144 | 985 ft | 17 kts | 91° |
| 2026-05-08 02:10 | 33.63654 | -84.41991 | 979 ft | 20 kts | 90° |
| 2026-05-08 02:10 | 33.63655 | -84.41821 | 969 ft | 14 kts | 90° |
| 2026-05-08 02:10 | 33.63656 | -84.41693 | 966 ft | 16 kts | 90° |
| 2026-05-08 02:11 | 33.63655 | -84.41549 | 964 ft | 18 kts | 90° |
| 2026-05-08 02:11 | 33.63655 | -84.41397 | 963 ft | 18 kts | 91° |
| 2026-05-08 02:11 | 33.63656 | -84.41244 | 963 ft | 18 kts | 90° |
| 2026-05-08 02:11 | 33.63655 | -84.41093 | 961 ft | 18 kts | 89° |
| 2026-05-08 02:12 | 33.63648 | -84.40943 | 957 ft | 17 kts | 119° |
| 2026-05-08 02:12 | 33.63587 | -84.40909 | 956 ft | 4 kts | 179° |
| 2026-05-08 02:12 | 33.63585 | -84.40909 | 956 ft | 0 kts | 180° |
| 2026-05-08 02:12 | 33.63584 | -84.40909 | 956 ft | 0 kts | 180° |
| 2026-05-08 02:13 | 33.63577 | -84.40909 | 956 ft | 1 kts | 180° |
| 2026-05-08 02:13 | 33.63555 | -84.40909 | 956 ft | 5 kts | 180° |
| 2026-05-08 02:13 | 33.63507 | -84.40909 | 956 ft | 8 kts | 181° |
| 2026-05-08 02:13 | 33.63473 | -84.40951 | 958 ft | 7 kts | 265° |
| 2026-05-08 02:14 | 33.63473 | -84.41197 | 963 ft | 68 kts | 270° |
| 2026-05-08 02:14 | 33.63471 | -84.42054 | 985 ft | 138 kts | 270° |
| 2026-05-08 02:14 | 33.63461 | -84.43301 | 1192 ft | 174 kts | 270° |
| 2026-05-08 02:14 | 33.63441 | -84.44556 | 1951 ft | 171 kts | 270° |
| 2026-05-08 02:15 | 33.63400 | -84.45750 | 2800 ft | 166 kts | 271° |
| 2026-05-08 02:15 | 33.63328 | -84.46960 | 3383 ft | 174 kts | 270° |
| 2026-05-08 02:15 | 33.63179 | -84.48252 | 3844 ft | 191 kts | 258° |
| 2026-05-08 02:15 | 33.62713 | -84.49553 | 4316 ft | 208 kts | 248° |
| 2026-05-08 02:16 | 33.62092 | -84.50923 | 4748 ft | 228 kts | 246° |
| 2026-05-08 02:16 | 33.61403 | -84.52434 | 5234 ft | 246 kts | 246° |
| 2026-05-08 02:16 | 33.60695 | -84.54034 | 5909 ft | 255 kts | 246° |
| 2026-05-08 02:16 | 33.59974 | -84.55698 | 6855 ft | 254 kts | 246° |
| 2026-05-08 02:17 | 33.58961 | -84.57297 | 7827 ft | 261 kts | 226° |
| 2026-05-08 02:17 | 33.57562 | -84.58251 | 8670 ft | 274 kts | 206° |
| 2026-05-08 02:17 | 33.55901 | -84.58551 | 9320 ft | 288 kts | 190° |
| 2026-05-08 02:17 | 33.54145 | -84.58542 | 9756 ft | 290 kts | 188° |
| 2026-05-08 02:18 | 33.52386 | -84.58501 | 9970 ft | 292 kts | 188° |
| 2026-05-08 02:18 | 33.50543 | -84.58449 | 9994 ft | 317 kts | 184° |
| 2026-05-08 02:18 | 33.48623 | -84.57871 | 9942 ft | 334 kts | 162° |
| 2026-05-08 02:18 | 33.46959 | -84.56422 | 9981 ft | 345 kts | 137° |
| 2026-05-08 02:19 | 33.45829 | -84.54301 | 10346 ft | 356 kts | 115° |
| 2026-05-08 02:19 | 33.45372 | -84.51730 | 10649 ft | 376 kts | 92° |
| 2026-05-08 02:19 | 33.45396 | -84.48898 | 11055 ft | 391 kts | 86° |
| 2026-05-08 02:19 | 33.45513 | -84.46007 | 11548 ft | 402 kts | 86° |
| 2026-05-08 02:20 | 33.45602 | -84.43064 | 12164 ft | 409 kts | 88° |
| 2026-05-08 02:20 | 33.45639 | -84.40063 | 12534 ft | 424 kts | 89° |
| 2026-05-08 02:20 | 33.45643 | -84.36988 | 12935 ft | 435 kts | 88° |
| 2026-05-08 02:20 | 33.45818 | -84.33819 | 13493 ft | 440 kts | 81° |
| 2026-05-08 02:21 | 33.46280 | -84.30711 | 14101 ft | 442 kts | 73° |
| 2026-05-08 02:21 | 33.47005 | -84.27582 | 14725 ft | 445 kts | 70° |
| 2026-05-08 02:21 | 33.47816 | -84.24470 | 15299 ft | 450 kts | 69° |
| 2026-05-08 02:21 | 33.48676 | -84.21259 | 15887 ft | 454 kts | 69° |
| 2026-05-08 02:22 | 33.49508 | -84.18116 | 16581 ft | 454 kts | 69° |
| 2026-05-08 02:22 | 33.50336 | -84.14938 | 17305 ft | 454 kts | 70° |
| 2026-05-08 02:22 | 33.51146 | -84.11777 | 17995 ft | 454 kts | 70° |
| 2026-05-08 02:22 | 33.51954 | -84.08570 | 18650 ft | 455 kts | 70° |
| 2026-05-08 02:23 | 33.52764 | -84.05354 | 19267 ft | 456 kts | 70° |
| 2026-05-08 02:23 | 33.53554 | -84.02198 | 19876 ft | 457 kts | 70° |
| 2026-05-08 02:23 | 33.54368 | -83.98961 | 20529 ft | 457 kts | 70° |
| 2026-05-08 02:23 | 33.55168 | -83.95770 | 21142 ft | 457 kts | 70° |
| 2026-05-08 02:24 | 33.55969 | -83.92574 | 21738 ft | 458 kts | 70° |
| 2026-05-08 02:24 | 33.56773 | -83.89362 | 22340 ft | 458 kts | 70° |
| 2026-05-08 02:24 | 33.57572 | -83.86165 | 22940 ft | 457 kts | 69° |
| 2026-05-08 02:24 | 33.58441 | -83.82956 | 23532 ft | 456 kts | 65° |
| 2026-05-08 02:25 | 33.59486 | -83.79806 | 24066 ft | 455 kts | 61° |
| 2026-05-08 02:25 | 33.60632 | -83.76752 | 24538 ft | 458 kts | 59° |
| 2026-05-08 02:25 | 33.61820 | -83.73701 | 24902 ft | 461 kts | 59° |
| 2026-05-08 02:25 | 33.63041 | -83.70574 | 25005 ft | 465 kts | 59° |
| 2026-05-08 02:26 | 33.64241 | -83.67454 | 25004 ft | 466 kts | 60° |
| 2026-05-08 02:26 | 33.65338 | -83.64322 | 25001 ft | 469 kts | 64° |
| 2026-05-08 02:26 | 33.66338 | -83.60988 | 25004 ft | 469 kts | 66° |
| 2026-05-08 02:26 | 33.67339 | -83.57787 | 25000 ft | 466 kts | 62° |
| 2026-05-08 02:27 | 33.68552 | -83.54669 | 24998 ft | 463 kts | 56° |
| 2026-05-08 02:27 | 33.69913 | -83.51698 | 25002 ft | 462 kts | 53° |
| 2026-05-08 02:27 | 33.71410 | -83.48631 | 25002 ft | 463 kts | 52° |
| 2026-05-08 02:27 | 33.72954 | -83.45525 | 25002 ft | 463 kts | 52° |
| 2026-05-08 02:28 | 33.74414 | -83.42584 | 25001 ft | 464 kts | 52° |
| 2026-05-08 02:28 | 33.75866 | -83.39630 | 24997 ft | 464 kts | 52° |
| 2026-05-08 02:28 | 33.77306 | -83.36675 | 25000 ft | 464 kts | 52° |
| 2026-05-08 02:28 | 33.78735 | -83.33726 | 24995 ft | 463 kts | 53° |
| 2026-05-08 02:29 | 33.80175 | -83.30751 | 24994 ft | 464 kts | 53° |
| 2026-05-08 02:29 | 33.81615 | -83.27782 | 24996 ft | 464 kts | 53° |
| 2026-05-08 02:29 | 33.83064 | -83.24785 | 24994 ft | 463 kts | 52° |
| 2026-05-08 02:29 | 33.84589 | -83.21843 | 24996 ft | 461 kts | 50° |
| 2026-05-08 02:30 | 33.86171 | -83.18925 | 24995 ft | 460 kts | 49° |
| 2026-05-08 02:30 | 33.87728 | -83.16099 | 24989 ft | 462 kts | 49° |
| 2026-05-08 02:30 | 33.89312 | -83.13216 | 24991 ft | 462 kts | 49° |
| 2026-05-08 02:30 | 33.91049 | -83.10046 | 24989 ft | 462 kts | 49° |
| 2026-05-08 02:31 | 33.92822 | -83.06800 | 24990 ft | 462 kts | 49° |
| 2026-05-08 02:31 | 33.94601 | -83.03526 | 24992 ft | 462 kts | 49° |
| 2026-05-08 02:31 | 33.96361 | -83.00282 | 24985 ft | 462 kts | 49° |
| 2026-05-08 02:31 | 33.98117 | -82.97044 | 24989 ft | 462 kts | 49° |
| 2026-05-08 02:32 | 33.99672 | -82.94169 | 24984 ft | 463 kts | 49° |
| 2026-05-08 02:32 | 34.01260 | -82.91234 | 24985 ft | 462 kts | 49° |
| 2026-05-08 02:32 | 34.02840 | -82.88306 | 24984 ft | 462 kts | 49° |
| 2026-05-08 02:32 | 34.04460 | -82.85309 | 24989 ft | 462 kts | 49° |
| 2026-05-08 02:33 | 34.06040 | -82.82386 | 24989 ft | 462 kts | 49° |
| 2026-05-08 02:33 | 34.07598 | -82.79493 | 24993 ft | 462 kts | 49° |
| 2026-05-08 02:33 | 34.09157 | -82.76600 | 24991 ft | 462 kts | 49° |
| 2026-05-08 02:33 | 34.10703 | -82.73724 | 24986 ft | 461 kts | 49° |
| 2026-05-08 02:34 | 34.12260 | -82.70831 | 24983 ft | 462 kts | 49° |
| 2026-05-08 02:34 | 34.13795 | -82.67973 | 24985 ft | 461 kts | 49° |
| 2026-05-08 02:34 | 34.15358 | -82.65065 | 24987 ft | 462 kts | 49° |
| 2026-05-08 02:34 | 34.16884 | -82.62224 | 24986 ft | 463 kts | 49° |
| 2026-05-08 02:35 | 34.18440 | -82.59319 | 24984 ft | 462 kts | 49° |
| 2026-05-08 02:35 | 34.19980 | -82.56440 | 24980 ft | 462 kts | 49° |
| 2026-05-08 02:35 | 34.21525 | -82.53553 | 24979 ft | 463 kts | 49° |
| 2026-05-08 02:35 | 34.23090 | -82.50620 | 24978 ft | 462 kts | 49° |
| 2026-05-08 02:36 | 34.24638 | -82.47721 | 24839 ft | 463 kts | 49° |
| 2026-05-08 02:36 | 34.26161 | -82.44867 | 24593 ft | 461 kts | 49° |
| 2026-05-08 02:36 | 34.27685 | -82.42011 | 24317 ft | 459 kts | 49° |
| 2026-05-08 02:36 | 34.29210 | -82.39143 | 23952 ft | 457 kts | 49° |
| 2026-05-08 02:37 | 34.30721 | -82.36311 | 23523 ft | 457 kts | 49° |
| 2026-05-08 02:37 | 34.32236 | -82.33478 | 23045 ft | 458 kts | 50° |
| 2026-05-08 02:37 | 34.33772 | -82.30596 | 22564 ft | 458 kts | 50° |
| 2026-05-08 02:37 | 34.35293 | -82.27735 | 22051 ft | 460 kts | 50° |
| 2026-05-08 02:38 | 34.36827 | -82.24839 | 21550 ft | 460 kts | 51° |
| 2026-05-08 02:38 | 34.38344 | -82.21981 | 21142 ft | 458 kts | 50° |
| 2026-05-08 02:38 | 34.39859 | -82.19113 | 20727 ft | 456 kts | 50° |
| 2026-05-08 02:38 | 34.41377 | -82.16241 | 20327 ft | 453 kts | 51° |
| 2026-05-08 02:39 | 34.42899 | -82.13357 | 19878 ft | 445 kts | 51° |
| 2026-05-08 02:39 | 34.44382 | -82.10537 | 19484 ft | 436 kts | 50° |
| 2026-05-08 02:39 | 34.45801 | -82.07838 | 19074 ft | 426 kts | 50° |
| 2026-05-08 02:39 | 34.47213 | -82.05157 | 18709 ft | 416 kts | 50° |
| 2026-05-08 02:40 | 34.48564 | -82.02593 | 18354 ft | 411 kts | 50° |
| 2026-05-08 02:40 | 34.49931 | -82.00005 | 17989 ft | 409 kts | 50° |
| 2026-05-08 02:40 | 34.51294 | -81.97426 | 17622 ft | 407 kts | 50° |
| 2026-05-08 02:40 | 34.52639 | -81.94870 | 17255 ft | 405 kts | 50° |
| 2026-05-08 02:41 | 34.53974 | -81.92337 | 16907 ft | 402 kts | 50° |
| 2026-05-08 02:41 | 34.55299 | -81.89824 | 16557 ft | 400 kts | 50° |
| 2026-05-08 02:41 | 34.56601 | -81.87353 | 16210 ft | 398 kts | 51° |
| 2026-05-08 02:41 | 34.57899 | -81.84875 | 15864 ft | 396 kts | 51° |
| 2026-05-08 02:42 | 34.59200 | -81.82402 | 15495 ft | 395 kts | 51° |
| 2026-05-08 02:42 | 34.60519 | -81.79889 | 15140 ft | 393 kts | 51° |
| 2026-05-08 02:42 | 34.61830 | -81.77381 | 14750 ft | 391 kts | 51° |
| 2026-05-08 02:42 | 34.63118 | -81.74915 | 14381 ft | 384 kts | 52° |
| 2026-05-08 02:43 | 34.64391 | -81.72471 | 14005 ft | 375 kts | 52° |
| 2026-05-08 02:43 | 34.65612 | -81.70132 | 13645 ft | 372 kts | 52° |
| 2026-05-08 02:43 | 34.66794 | -81.67868 | 13299 ft | 370 kts | 52° |
| 2026-05-08 02:43 | 34.68015 | -81.65531 | 12933 ft | 368 kts | 52° |
| 2026-05-08 02:44 | 34.69331 | -81.63007 | 12554 ft | 366 kts | 53° |
| 2026-05-08 02:44 | 34.70684 | -81.60408 | 12156 ft | 363 kts | 52° |
| 2026-05-08 02:44 | 34.71919 | -81.58034 | 11782 ft | 362 kts | 53° |
| 2026-05-08 02:44 | 34.73152 | -81.55662 | 11473 ft | 357 kts | 53° |
| 2026-05-08 02:45 | 34.74368 | -81.53317 | 11325 ft | 346 kts | 53° |
| 2026-05-08 02:45 | 34.75475 | -81.51105 | 11209 ft | 337 kts | 56° |
| 2026-05-08 02:45 | 34.76473 | -81.48878 | 10891 ft | 336 kts | 58° |
| 2026-05-08 02:45 | 34.77410 | -81.46668 | 10562 ft | 335 kts | 61° |
| 2026-05-08 02:46 | 34.78217 | -81.44349 | 10230 ft | 335 kts | 67° |
| 2026-05-08 02:46 | 34.78857 | -81.41992 | 9935 ft | 332 kts | 70° |
| 2026-05-08 02:46 | 34.79436 | -81.39614 | 9685 ft | 328 kts | 71° |
| 2026-05-08 02:46 | 34.80011 | -81.37211 | 9308 ft | 328 kts | 71° |
| 2026-05-08 02:47 | 34.80581 | -81.34843 | 9055 ft | 323 kts | 71° |
| 2026-05-08 02:47 | 34.81153 | -81.32493 | 8750 ft | 315 kts | 71° |
| 2026-05-08 02:47 | 34.81713 | -81.30219 | 8454 ft | 308 kts | 71° |
| 2026-05-08 02:47 | 34.82250 | -81.28049 | 8173 ft | 300 kts | 71° |
| 2026-05-08 02:48 | 34.82789 | -81.25873 | 7886 ft | 292 kts | 71° |
| 2026-05-08 02:48 | 34.83318 | -81.23733 | 7563 ft | 284 kts | 71° |
| 2026-05-08 02:48 | 34.83824 | -81.21690 | 7229 ft | 278 kts | 71° |
| 2026-05-08 02:48 | 34.84312 | -81.19715 | 7110 ft | 267 kts | 71° |
| 2026-05-08 02:49 | 34.84786 | -81.17801 | 7053 ft | 255 kts | 71° |
| 2026-05-08 02:49 | 34.85246 | -81.15939 | 7014 ft | 253 kts | 71° |
| 2026-05-08 02:49 | 34.85719 | -81.14046 | 7019 ft | 253 kts | 69° |
| 2026-05-08 02:49 | 34.86294 | -81.12184 | 7102 ft | 253 kts | 65° |
| 2026-05-08 02:50 | 34.86914 | -81.10298 | 7042 ft | 253 kts | 65° |
| 2026-05-08 02:50 | 34.87501 | -81.08531 | 7020 ft | 252 kts | 65° |
| 2026-05-08 02:50 | 34.88094 | -81.06738 | 7002 ft | 252 kts | 65° |
| 2026-05-08 02:50 | 34.88666 | -81.04993 | 6996 ft | 252 kts | 65° |
| 2026-05-08 02:51 | 34.89240 | -81.03226 | 6989 ft | 254 kts | 66° |
| 2026-05-08 02:51 | 34.89810 | -81.01469 | 6982 ft | 253 kts | 66° |
| 2026-05-08 02:51 | 34.90382 | -80.99696 | 6858 ft | 254 kts | 66° |
| 2026-05-08 02:51 | 34.90948 | -80.97936 | 6605 ft | 250 kts | 66° |
| 2026-05-08 02:52 | 34.91517 | -80.96169 | 6380 ft | 248 kts | 66° |
| 2026-05-08 02:52 | 34.92112 | -80.94481 | 6135 ft | 243 kts | 57° |
| 2026-05-08 02:52 | 34.93214 | -80.93167 | 5867 ft | 231 kts | 26° |
| 2026-05-08 02:52 | 34.94629 | -80.92728 | 5587 ft | 219 kts | 359° |
| 2026-05-08 02:53 | 34.96109 | -80.92853 | 5314 ft | 215 kts | 351° |
| 2026-05-08 02:53 | 34.97506 | -80.93059 | 5052 ft | 213 kts | 351° |
| 2026-05-08 02:53 | 34.98907 | -80.93246 | 4783 ft | 210 kts | 353° |
| 2026-05-08 02:53 | 35.00331 | -80.93404 | 4507 ft | 204 kts | 354° |
| 2026-05-08 02:54 | 35.01682 | -80.93532 | 4245 ft | 198 kts | 355° |
| 2026-05-08 02:54 | 35.03002 | -80.93645 | 3987 ft | 193 kts | 355° |
| 2026-05-08 02:54 | 35.04285 | -80.93752 | 3740 ft | 186 kts | 355° |
| 2026-05-08 02:54 | 35.05522 | -80.93855 | 3503 ft | 180 kts | 356° |
| 2026-05-08 02:55 | 35.06755 | -80.93957 | 3308 ft | 170 kts | 356° |
| 2026-05-08 02:55 | 35.08900 | -80.94136 | 2860 ft | 154 kts | 357° |
| 2026-05-08 02:55 | 35.09920 | -80.94222 | 2669 ft | 155 kts | 356° |
| 2026-05-08 02:56 | 35.10929 | -80.94307 | 2482 ft | 154 kts | 357° |
| 2026-05-08 02:56 | 35.11942 | -80.94394 | 2269 ft | 141 kts | 357° |
| 2026-05-08 02:56 | 35.12898 | -80.94476 | 2082 ft | 137 kts | 357° |
| 2026-05-08 02:56 | 35.13832 | -80.94554 | 1913 ft | 137 kts | 357° |
| 2026-05-08 02:57 | 35.14763 | -80.94634 | 1743 ft | 136 kts | 357° |
| 2026-05-08 02:57 | 35.15672 | -80.94711 | 1569 ft | 136 kts | 356° |
| 2026-05-08 02:57 | 35.16573 | -80.94788 | 1396 ft | 135 kts | 356° |
| 2026-05-08 02:57 | 35.17486 | -80.94865 | 1207 ft | 135 kts | 356° |
| 2026-05-08 02:58 | 35.18363 | -80.94935 | 1033 ft | 134 kts | 357° |
| 2026-05-08 02:58 | 35.19261 | -80.95014 | 875 ft | 133 kts | 356° |
| 2026-05-08 02:58 | 35.20132 | -80.95091 | 727 ft | 132 kts | 356° |
| 2026-05-08 02:58 | 35.20903 | -80.95155 | 707 ft | 102 kts | 355° |
| 2026-05-08 02:59 | 35.21419 | -80.95219 | 717 ft | 55 kts | 357° |
| 2026-05-08 02:59 | 35.21671 | -80.95225 | 722 ft | 32 kts | 359° |
| 2026-05-08 02:59 | 35.21873 | -80.95219 | 725 ft | 26 kts | 8° |
| 2026-05-08 02:59 | 35.22018 | -80.95150 | 727 ft | 22 kts | 25° |
| 2026-05-08 03:00 | 35.22148 | -80.95074 | 730 ft | 18 kts | 24° |
| 2026-05-08 03:00 | 35.22219 | -80.95014 | 731 ft | 12 kts | 53° |
| 2026-05-08 03:00 | 35.22282 | -80.94949 | 732 ft | 11 kts | 8° |
| 2026-05-08 03:00 | 35.22356 | -80.94952 | 733 ft | 9 kts | 1° |
| 2026-05-08 03:01 | 35.22387 | -80.94903 | 733 ft | 8 kts | 88° |
| 2026-05-08 03:01 | 35.22390 | -80.94821 | 732 ft | 10 kts | 87° |
| 2026-05-08 03:01 | 35.22391 | -80.94782 | 732 ft | 5 kts | 85° |
| 2026-05-08 03:01 | 35.22409 | -80.94756 | 733 ft | 3 kts | 6° |
| 2026-05-08 03:02 | 35.22430 | -80.94756 | 734 ft | 2 kts | 357° |
| 2026-05-08 03:02 | 35.22431 | -80.94756 | 734 ft | 0 kts | 356° |
| 2026-05-08 03:02 | 35.22432 | -80.94756 | 734 ft | 0 kts | 356° |
| 2026-05-08 03:02 | 35.22434 | -80.94757 | 734 ft | 0 kts | 355° |
| 2026-05-08 03:03 | 35.22439 | -80.94757 | 734 ft | 0 kts | 355° |
| 2026-05-08 03:03 | 35.22442 | -80.94758 | 734 ft | 0 kts | 354° |
| 2026-05-08 03:03 | 35.22445 | -80.94758 | 734 ft | 0 kts | 354° |